Time;durP1;ratioP1;P1;durP2;ratioP2;P2;SDS_P1;SDS_P2;PMS_P1;PMS_P2;Temp;Humidity;BMP_temperature;BMP_pressure;BME280_temperature;BME280_humidity;BME280_pressure;Samples;Min_cycle;Max_cycle;Signal;HPM_P1;HPM_P2
2022/09/02 00:00:21;;;;;;;5.72;3.87;;;;;;;12.17;73.69;100759.09;2134815;82;21882;-72
2022/09/02 00:03:22;;;;;;;9.90;3.77;;;;;;;12.21;73.67;100754.27;2134864;81;21501;-72
2022/09/02 00:06:24;;;;;;;4.58;3.27;;;;;;;12.22;73.63;100758.59;2137004;83;21010;-74
2022/09/02 00:09:26;;;;;;;4.67;3.42;;;;;;;12.21;73.63;100755.60;2135260;81;21950;-73
2022/09/02 00:12:27;;;;;;;6.17;3.52;;;;;;;12.22;73.67;100761.25;2139810;81;20979;-71
2022/09/02 00:15:28;;;;;;;8.05;3.60;;;;;;;12.22;73.71;100751.94;2136946;81;21022;-73
2022/09/02 00:18:29;;;;;;;4.45;3.40;;;;;;;12.21;73.62;100751.61;2135119;81;21038;-76
2022/09/02 00:21:33;;;;;;;7.42;3.33;;;;;;;12.19;73.67;100750.94;2132029;81;21090;-72
2022/09/02 00:24:34;;;;;;;4.50;3.62;;;;;;;12.15;73.66;100748.27;2116922;82;21011;-72
2022/09/02 00:27:36;;;;;;;5.37;3.20;;;;;;;12.13;73.67;100754.24;2127260;82;21560;-72
2022/09/02 00:30:38;;;;;;;6.70;2.85;;;;;;;12.09;73.66;100755.08;2131763;81;21567;-73
2022/09/02 00:33:40;;;;;;;6.08;3.42;;;;;;;12.02;73.60;100758.88;2110401;82;21058;-71
2022/09/02 00:36:41;;;;;;;6.67;3.10;;;;;;;11.90;73.82;100761.47;2132743;81;21485;-73
2022/09/02 00:39:42;;;;;;;6.78;3.85;;;;;;;11.85;74.07;100759.31;2138444;81;21089;-73
2022/09/02 00:42:43;;;;;;;5.37;3.50;;;;;;;11.83;74.18;100759.93;2130331;82;21052;-72
2022/09/02 00:45:44;;;;;;;5.28;3.40;;;;;;;11.85;74.21;100757.09;2135765;81;21027;-72
2022/09/02 00:49:00;;;;;;;4.72;2.90;;;;;;;11.86;74.20;100757.48;2133014;82;21011;-73
2022/09/02 00:52:07;;;;;;;4.95;3.20;;;;;;;11.83;74.26;100756.44;2137386;82;21007;-72
2022/09/02 00:55:31;;;;;;;5.58;3.30;;;;;;;11.78;74.34;100752.09;2137233;82;21050;-72
2022/09/02 00:58:34;;;;;;;4.90;2.92;;;;;;;11.76;74.47;100747.42;2136195;81;21045;-78
2022/09/02 01:01:35;;;;;;;5.55;3.40;;;;;;;11.76;74.59;100755.40;2139994;82;21042;-72
2022/09/02 01:04:36;;;;;;;5.40;3.55;;;;;;;11.76;74.63;100755.40;2139719;81;21473;-72
2022/09/02 01:07:38;;;;;;;4.60;3.15;;;;;;;11.76;74.66;100755.40;2135028;83;21019;-72
2022/09/02 01:10:41;;;;;;;5.37;2.80;;;;;;;11.76;74.69;100755.40;2135993;81;21012;-72
2022/09/02 01:13:44;;;;;;;4.70;2.90;;;;;;;11.81;74.74;100753.09;2133061;82;21063;-77
2022/09/02 01:16:52;;;;;;;7.33;2.83;;;;;;;11.82;74.77;100755.58;2136007;82;21015;-74
2022/09/02 01:20:02;;;;;;;3.45;2.58;;;;;;;11.86;74.80;100756.16;2137466;81;20998;-72
2022/09/02 01:23:03;;;;;;;5.00;3.15;;;;;;;11.89;75.18;100750.52;2133045;81;21027;-72
2022/09/02 01:26:06;;;;;;;3.95;2.50;;;;;;;11.91;75.03;100748.53;2136826;81;21020;-73
2022/09/02 01:29:08;;;;;;;4.42;2.80;;;;;;;11.94;75.09;100748.21;2130417;81;21114;-73
2022/09/02 01:32:10;;;;;;;3.02;2.30;;;;;;;11.98;75.08;100748.72;2134584;81;21038;-71
2022/09/02 01:35:11;;;;;;;4.00;2.50;;;;;;;12.02;75.13;100742.06;2134194;82;21501;-73
2022/09/02 01:38:13;;;;;;;3.33;2.40;;;;;;;12.05;75.07;100745.73;2135824;81;21038;-71
2022/09/02 01:41:14;;;;;;;4.80;2.40;;;;;;;12.05;75.18;100743.93;2138002;81;21516;-73
2022/09/02 01:44:16;;;;;;;2.90;2.37;;;;;;;12.09;75.52;100747.09;2131898;82;21525;-72
2022/09/02 01:47:25;;;;;;;3.60;2.83;;;;;;;12.06;75.42;100742.92;2131444;82;21489;-74
2022/09/02 01:50:27;;;;;;;5.30;2.50;;;;;;;12.08;75.56;100745.44;2129489;82;21891;-71
2022/09/02 01:53:30;;;;;;;7.55;2.50;;;;;;;12.10;75.63;100745.59;2134172;83;21000;-72
2022/09/02 01:56:32;;;;;;;5.92;2.85;;;;;;;12.10;75.52;100749.58;2137532;81;21015;-71
2022/09/02 01:59:34;;;;;;;3.98;2.60;;;;;;;12.10;75.58;100750.08;2130703;82;20979;-73
2022/09/02 02:02:35;;;;;;;5.75;1.98;;;;;;;12.06;75.61;100744.25;2130863;83;21050;-72
2022/09/02 02:05:37;;;;;;;4.22;2.42;;;;;;;12.05;75.76;100747.06;2133663;82;21045;-74
2022/09/02 02:08:38;;;;;;;3.52;2.25;;;;;;;12.04;75.91;100748.06;2133091;81;21021;-71
2022/09/02 02:11:40;;;;;;;4.72;2.22;;;;;;;12.01;75.88;100744.41;2135350;83;20968;-72
2022/09/02 02:14:41;;;;;;;5.35;2.05;;;;;;;12.01;75.99;100744.41;2136346;81;21002;-77
2022/09/02 02:17:43;;;;;;;5.00;2.25;;;;;;;12.00;76.12;100736.09;2134898;81;20987;-73
2022/09/02 02:20:44;;;;;;;3.30;2.30;;;;;;;12.00;76.14;100740.91;2132580;81;21035;-73
2022/09/02 02:23:45;;;;;;;5.17;1.92;;;;;;;11.99;76.24;100737.08;2150562;82;21512;-72
2022/09/02 02:26:46;;;;;;;4.20;2.77;;;;;;;11.97;76.27;100739.08;2149942;81;21072;-71
2022/09/02 02:29:49;;;;;;;3.12;2.27;;;;;;;11.97;76.43;100742.57;2149252;82;20935;-72
2022/09/02 02:32:51;;;;;;;3.25;1.95;;;;;;;11.96;76.54;100739.55;2144028;82;21058;-72
2022/09/02 02:35:53;;;;;;;4.50;2.22;;;;;;;11.97;76.62;100742.57;2129748;82;21030;-74
2022/09/02 02:38:57;;;;;;;5.10;2.22;;;;;;;11.98;76.71;100744.22;2148378;82;21038;-73
2022/09/02 02:41:58;;;;;;;4.15;2.35;;;;;;;11.98;76.74;100743.39;2150228;82;21007;-74
2022/09/02 02:44:59;;;;;;;3.00;2.17;;;;;;;11.96;76.85;100736.89;2145432;82;20991;-72
2022/09/02 02:48:01;;;;;;;2.30;2.10;;;;;;;11.98;76.88;100736.75;2147690;81;21044;-72
2022/09/02 02:51:05;;;;;;;3.52;2.12;;;;;;;11.97;76.85;100737.25;2149759;82;20997;-71
2022/09/02 02:54:07;;;;;;;2.12;1.70;;;;;;;11.99;76.94;100741.89;2148144;82;21528;-72
2022/09/02 02:57:09;;;;;;;4.20;2.45;;;;;;;11.99;76.91;100736.57;2152599;81;21023;-75
2022/09/02 03:00:16;;;;;;;2.90;2.10;;;;;;;12.01;77.06;100739.08;2149225;82;21005;-72
2022/09/02 03:03:18;;;;;;;4.35;1.67;;;;;;;11.99;77.10;100740.56;2143576;82;21022;-74
2022/09/02 03:06:21;;;;;;;2.60;1.98;;;;;;;11.98;77.27;100738.91;2146858;81;20977;-75
2022/09/02 03:09:24;;;;;;;3.75;1.87;;;;;;;12.02;77.34;100742.92;2149277;81;21008;-73
2022/09/02 03:12:26;;;;;;;2.10;1.82;;;;;;;12.00;77.43;100739.59;2152907;81;21013;-72
2022/09/02 03:15:28;;;;;;;2.30;2.10;;;;;;;12.02;77.52;100731.43;2151687;82;21056;-73
2022/09/02 03:18:29;;;;;;;3.12;2.17;;;;;;;11.99;77.56;100732.58;2134925;81;21051;-72
2022/09/02 03:21:32;;;;;;;3.20;2.40;;;;;;;11.97;77.60;100729.77;2146990;81;20985;-73
2022/09/02 03:24:33;;;;;;;3.70;2.33;;;;;;;11.91;77.68;100729.06;2153112;80;21544;-72
2022/09/02 03:27:37;;;;;;;5.22;2.40;;;;;;;11.86;77.70;100734.88;2150154;81;21014;-71
2022/09/02 03:30:41;;;;;;;6.03;2.45;;;;;;;11.82;77.88;100732.16;2154341;81;21045;-72
2022/09/02 03:33:43;;;;;;;4.28;2.60;;;;;;;11.82;78.03;100725.51;2154580;81;21031;-72
2022/09/02 03:36:44;;;;;;;3.12;2.50;;;;;;;11.82;78.16;100728.17;2146072;82;21003;-71
2022/09/02 03:39:45;;;;;;;3.42;2.20;;;;;;;11.81;78.18;100727.34;2151641;81;20992;-72
2022/09/02 03:42:48;;;;;;;3.58;2.35;;;;;;;11.81;78.31;100719.86;2153258;81;21046;-73
2022/09/02 03:45:49;;;;;;;4.22;2.30;;;;;;;11.83;78.46;100729.34;2127846;82;21504;-73
2022/09/02 03:48:51;;;;;;;6.42;2.80;;;;;;;11.81;78.46;100733.16;2153471;82;21028;-73
2022/09/02 03:51:54;;;;;;;3.17;2.60;;;;;;;11.81;78.64;100734.48;2150412;82;21060;-72
2022/09/02 03:54:56;;;;;;;3.58;2.62;;;;;;;11.75;78.53;100739.95;2150138;82;20991;-77
2022/09/02 03:57:58;;;;;;;4.72;2.70;;;;;;;11.76;78.75;100746.09;2149433;82;21495;-73
2022/09/02 04:01:00;;;;;;;7.87;3.12;;;;;;;11.79;78.83;100747.10;2146120;81;21011;-75
2022/09/02 04:04:04;;;;;;;9.05;2.72;;;;;;;11.77;78.80;100738.44;2151336;81;21034;-72
2022/09/02 04:07:06;;;;;;;4.12;2.45;;;;;;;11.76;78.80;100740.77;2150944;81;20940;-74
2022/09/02 04:10:08;;;;;;;7.92;2.65;;;;;;;11.74;78.84;100741.42;2149907;82;20965;-73
2022/09/02 04:13:10;;;;;;;3.77;2.12;;;;;;;11.76;78.92;100743.43;2152792;81;21051;-74
2022/09/02 04:16:15;;;;;;;3.22;2.12;;;;;;;11.76;78.89;100742.11;2148875;81;20995;-72
2022/09/02 04:19:16;;;;;;;2.47;1.95;;;;;;;11.72;78.92;100746.09;2154610;82;20981;-75
2022/09/02 04:22:18;;;;;;;3.70;2.27;;;;;;;11.71;79.00;100748.39;2151679;82;21044;-75
2022/09/02 04:25:19;;;;;;;4.05;2.58;;;;;;;11.74;79.18;100747.59;2153254;82;21067;-75
2022/09/02 04:28:22;;;;;;;2.90;2.60;;;;;;;11.91;79.44;100749.86;2149417;81;21033;-73
2022/09/02 04:31:24;;;;;;;2.17;1.95;;;;;;;12.21;79.42;100755.60;2153140;82;21013;-73
2022/09/02 04:34:26;;;;;;;2.50;2.30;;;;;;;12.41;79.22;100751.66;2135252;81;21026;-74
2022/09/02 04:37:27;;;;;;;4.40;2.65;;;;;;;12.49;78.95;100751.67;2138846;82;21007;-74
2022/09/02 04:40:30;;;;;;;6.42;2.65;;;;;;;12.48;78.78;100747.86;2132941;82;21486;-73
2022/09/02 04:43:31;;;;;;;3.35;2.65;;;;;;;12.52;78.83;100747.35;2133594;81;21501;-71
2022/09/02 04:46:32;;;;;;;5.37;2.52;;;;;;;12.58;78.81;100743.70;2136210;81;21005;-72
2022/09/02 04:49:33;;;;;;;4.80;2.70;;;;;;;12.60;78.82;100746.54;2132130;82;21014;-70
2022/09/02 04:52:35;;;;;;;3.40;2.62;;;;;;;12.70;78.91;100746.40;2132508;81;20960;-73
2022/09/02 04:55:39;;;;;;;4.15;2.77;;;;;;;13.15;79.33;100749.03;2137582;81;20951;-69
2022/09/02 04:58:43;;;;;;;5.25;2.95;;;;;;;13.74;79.28;100741.63;2135731;81;21061;-69
2022/09/02 05:01:45;;;;;;;3.95;2.58;;;;;;;14.25;78.42;100738.56;2135013;81;21018;-69
2022/09/02 05:04:48;;;;;;;5.03;2.60;;;;;;;14.72;77.83;100741.59;2136573;81;21004;-70
2022/09/02 05:07:54;;;;;;;3.92;2.60;;;;;;;15.12;77.00;100745.79;2128149;82;21102;-68
2022/09/02 05:10:55;;;;;;;3.30;2.50;;;;;;;15.46;76.46;100741.78;2134091;82;20979;-69
2022/09/02 05:14:01;;;;;;;2.35;2.15;;;;;;;16.09;75.84;100737.70;2136871;81;21070;-69
2022/09/02 05:17:03;;;;;;;3.67;2.40;;;;;;;16.76;74.76;100743.28;2134849;82;21521;-69
2022/09/02 05:20:07;;;;;;;2.75;1.85;;;;;;;17.19;73.49;100742.40;2138935;81;20997;-69
2022/09/02 05:23:11;;;;;;;4.75;2.30;;;;;;;17.66;71.21;100747.56;2135709;81;21022;-69
2022/09/02 05:26:14;;;;;;;2.80;2.15;;;;;;;17.87;70.90;100738.61;2113604;81;21046;-70
2022/09/02 05:29:19;;;;;;;6.03;2.65;;;;;;;18.21;69.67;100743.08;2134336;81;20988;-71
2022/09/02 05:32:19;;;;;;;6.28;2.20;;;;;;;18.29;68.63;100736.18;2128028;81;21004;-72
2022/09/02 05:35:21;;;;;;;8.08;2.42;;;;;;;18.61;68.30;100739.13;2134876;81;21498;-71
2022/09/02 05:38:24;;;;;;;2.52;1.57;;;;;;;18.91;67.01;100734.77;2131956;81;20999;-69
2022/09/02 05:41:27;;;;;;;2.62;1.77;;;;;;;18.96;64.56;100739.83;2133671;82;21430;-69
2022/09/02 05:44:30;;;;;;;3.12;1.70;;;;;;;18.84;65.04;100739.30;2132541;81;21518;-71
2022/09/02 05:47:35;;;;;;;2.87;2.10;;;;;;;18.96;63.07;100738.48;2134006;82;22173;-71
2022/09/02 05:50:37;;;;;;;1.62;1.37;;;;;;;19.01;64.13;100735.19;2110287;82;20992;-75
2022/09/02 05:53:38;;;;;;;5.33;2.80;;;;;;;19.24;63.06;100730.72;2131467;82;21010;-73
2022/09/02 05:56:42;;;;;;;3.33;2.20;;;;;;;19.37;62.39;100733.89;2115357;81;21013;-71
2022/09/02 05:59:44;;;;;;;2.30;1.80;;;;;;;19.38;61.97;100734.22;2141488;81;21006;-70
2022/09/02 06:02:47;;;;;;;2.77;1.85;;;;;;;19.67;61.78;100739.14;2135994;81;21573;-73
2022/09/02 06:05:58;;;;;;;2.72;2.00;;;;;;;19.69;60.58;100739.77;2133832;83;20995;-73
2022/09/02 06:09:04;;;;;;;3.77;2.10;;;;;;;19.79;60.84;100741.17;2137027;81;21050;-81
2022/09/02 06:12:07;;;;;;;2.27;1.90;;;;;;;19.98;59.62;100744.84;2134185;81;21040;-71
2022/09/02 06:15:10;;;;;;;9.43;1.98;;;;;;;20.03;58.69;100742.34;2131561;81;21049;-72
2022/09/02 06:18:12;;;;;;;2.20;1.80;;;;;;;19.85;58.43;100747.91;2119988;81;21020;-72
2022/09/02 06:21:16;;;;;;;1.95;1.70;;;;;;;19.95;58.71;100742.58;2127297;81;20997;-74
2022/09/02 06:24:19;;;;;;;3.25;2.10;;;;;;;20.06;57.03;100737.34;2116821;82;20966;-72
2022/09/02 06:27:23;;;;;;;3.33;1.80;;;;;;;20.00;57.57;100734.17;2143760;81;20982;-72
2022/09/02 06:30:26;;;;;;;5.10;2.20;;;;;;;20.30;57.45;100738.98;2120218;81;21108;-71
2022/09/02 06:33:27;;;;;;;13.80;2.40;;;;;;;20.25;56.78;100742.34;2144120;81;21017;-75
2022/09/02 06:36:29;;;;;;;4.17;1.90;;;;;;;20.03;56.26;100740.47;2120683;81;20967;-72
2022/09/02 06:39:31;;;;;;;2.85;1.70;;;;;;;20.09;56.43;100743.65;2142931;81;21015;-72
2022/09/02 06:42:33;;;;;;;3.40;1.77;;;;;;;20.30;55.85;100738.98;2145470;81;21037;-72
2022/09/02 06:45:40;;;;;;;4.37;2.20;;;;;;;20.34;55.76;100749.13;2142695;81;21005;-72
2022/09/02 06:48:42;;;;;;;4.78;1.92;;;;;;;20.30;55.33;100748.41;2141666;82;21004;-73
2022/09/02 06:51:46;;;;;;;3.17;1.85;;;;;;;20.46;54.73;100752.48;2145155;81;21024;-71
2022/09/02 06:54:49;;;;;;;4.22;2.10;;;;;;;20.21;53.99;100750.53;2126896;82;21063;-77
2022/09/02 06:57:50;;;;;;;5.47;2.25;;;;;;;20.25;54.81;100748.26;2149362;82;21528;-71
2022/09/02 07:00:53;;;;;;;3.42;2.20;;;;;;;20.23;55.11;100750.33;2118420;82;22010;-72
2022/09/02 07:07:15;;;;;;;6.83;2.08;;;;;;;20.67;54.69;100741.92;2189563;80;21468;-71
2022/09/02 07:10:21;;;;;;;3.37;1.75;;;;;;;20.80;53.78;100745.85;2186514;79;21022;-73
2022/09/02 07:13:24;;;;;;;1.87;1.70;;;;;;;20.88;53.87;100751.51;2196394;79;20976;-72
2022/09/02 07:16:25;;;;;;;4.08;2.30;;;;;;;21.10;53.15;100754.12;2191023;79;20966;-72
2022/09/02 07:19:26;;;;;;;2.12;1.75;;;;;;;21.09;53.21;100748.44;2193253;80;21023;-72
2022/09/02 07:22:28;;;;;;;4.47;2.00;;;;;;;21.21;52.02;100752.06;2201622;79;21033;-71
2022/09/02 07:25:30;;;;;;;4.03;2.08;;;;;;;21.28;52.10;100751.98;2197697;79;21428;-73
2022/09/02 07:28:33;;;;;;;3.37;2.00;;;;;;;21.26;52.30;100756.80;2177875;80;21006;-72
2022/09/02 07:31:38;;;;;;;2.75;1.95;;;;;;;21.45;52.28;100751.74;2189565;79;20966;-72
2022/09/02 07:34:40;;;;;;;2.37;2.00;;;;;;;21.75;52.44;100754.25;2190718;80;21492;-73
2022/09/02 07:37:41;;;;;;;4.05;2.10;;;;;;;21.85;51.01;100754.53;2191125;79;20993;-72
2022/09/02 07:40:45;;;;;;;2.30;1.85;;;;;;;21.76;51.78;100749.96;2158529;80;20974;-73
2022/09/02 07:43:46;;;;;;;5.17;2.22;;;;;;;21.83;50.86;100752.08;2192628;80;20955;-72
2022/09/02 07:46:48;;;;;;;7.30;2.00;;;;;;;21.77;49.40;100751.63;2182585;80;21053;-72
2022/09/02 07:49:49;;;;;;;2.70;1.72;;;;;;;21.70;50.84;100754.39;2190547;80;21016;-73
2022/09/02 07:52:50;;;;;;;7.20;2.22;;;;;;;22.03;49.62;100749.66;2191400;79;21106;-73
2022/09/02 07:55:52;;;;;;;4.97;2.22;;;;;;;22.00;49.86;100759.05;2192898;80;21061;-73
2022/09/02 07:58:53;;;;;;;4.33;1.70;;;;;;;22.32;48.90;100759.69;2185006;80;21011;-74
2022/09/02 08:01:55;;;;;;;2.40;1.47;;;;;;;22.42;49.53;100752.93;2188826;80;20955;-72
2022/09/02 08:04:56;;;;;;;2.08;1.60;;;;;;;22.40;48.94;100753.14;2181855;80;21053;-72
2022/09/02 08:08:01;;;;;;;1.77;1.52;;;;;;;22.30;47.47;100747.45;2187825;80;21032;-73
2022/09/02 08:11:05;;;;;;;1.72;1.22;;;;;;;22.06;47.68;100749.20;2191204;79;20985;-73
2022/09/02 08:14:10;;;;;;;3.22;1.45;;;;;;;22.40;47.70;100746.38;2182500;80;21453;-72
2022/09/02 08:17:11;;;;;;;3.80;1.42;;;;;;;22.77;46.81;100745.72;2162136;80;22169;-73
2022/09/02 08:20:13;;;;;;;2.12;1.55;;;;;;;22.57;45.87;100746.02;2193155;79;21485;-72
2022/09/02 08:23:15;;;;;;;1.60;1.40;;;;;;;22.25;45.43;100745.98;2191989;79;21411;-72
2022/09/02 08:26:17;;;;;;;3.35;1.72;;;;;;;22.40;46.44;100744.22;2192368;79;21003;-72
2022/09/02 08:29:18;;;;;;;1.45;1.32;;;;;;;22.46;45.70;100744.11;2188559;79;21002;-74
2022/09/02 08:32:19;;;;;;;2.40;1.10;;;;;;;22.65;45.61;100739.47;2187171;80;21498;-72
2022/09/02 08:35:20;;;;;;;2.30;1.10;;;;;;;22.59;43.71;100738.52;2191186;79;21040;-76
2022/09/02 08:38:21;;;;;;;4.72;1.47;;;;;;;22.39;43.89;100737.98;2188735;79;20979;-72
2022/09/02 08:41:27;;;;;;;1.67;1.07;;;;;;;22.38;43.49;100741.22;2194320;80;21584;-73
2022/09/02 08:44:29;;;;;;;3.47;1.57;;;;;;;22.36;43.93;100737.92;2189647;80;21168;-73
2022/09/02 08:47:32;;;;;;;3.50;1.55;;;;;;;22.12;42.95;100734.25;2167220;80;21020;-73
2022/09/02 08:50:36;;;;;;;4.62;2.00;;;;;;;21.89;43.99;100740.36;2187275;79;21017;-74
2022/09/02 08:53:57;;;;;;;2.12;1.22;;;;;;;21.74;43.86;100735.03;2187096;80;21088;-72
2022/09/02 08:56:58;;;;;;;1.30;1.20;;;;;;;21.72;43.21;100731.22;2181687;80;21438;-77
2022/09/02 09:00:01;;;;;;;2.47;1.40;;;;;;;21.77;43.57;100735.42;2187739;80;21667;-72
2022/09/02 09:03:30;;;;;;;2.40;1.30;;;;;;;22.05;42.87;100730.00;2188501;80;21444;-73
2022/09/02 09:07:13;;;;;;;3.90;1.33;;;;;;;22.08;42.94;100720.09;2191456;80;21014;-73
2022/09/02 09:10:41;;;;;;;2.65;1.40;;;;;;;22.04;43.43;100716.99;2187386;79;21427;-72
2022/09/02 09:14:11;;;;;;;1.67;1.15;;;;;;;22.13;42.14;100726.95;2187498;80;20966;-72
2022/09/02 09:17:18;;;;;;;3.67;0.93;;;;;;;22.02;43.31;100720.47;2197377;79;21609;-73
2022/09/02 09:20:24;;;;;;;3.17;1.30;;;;;;;22.00;42.50;100719.87;2188810;79;20998;-72
2022/09/02 09:23:32;;;;;;;1.47;1.17;;;;;;;22.01;42.14;100719.34;2194278;79;20967;-72
2022/09/02 09:26:39;;;;;;;1.12;1.00;;;;;;;21.92;40.82;100712.89;2196447;79;20990;-71
2022/09/02 09:29:41;;;;;;;1.77;1.00;;;;;;;22.09;42.30;100719.02;2191360;79;21011;-73
2022/09/02 09:32:56;;;;;;;1.98;1.07;;;;;;;21.46;41.11;100716.97;2189794;79;21508;-73
2022/09/02 09:35:57;;;;;;;1.55;1.10;;;;;;;20.75;42.03;100707.92;2192965;80;20945;-72
2022/09/02 09:38:58;;;;;;;3.08;1.17;;;;;;;20.95;42.27;100703.22;2192943;79;20959;-73
2022/09/02 09:42:03;;;;;;;2.80;0.90;;;;;;;21.15;41.96;100709.78;2188334;80;21009;-74
2022/09/02 09:45:30;;;;;;;1.42;1.22;;;;;;;21.23;41.43;100705.45;2162339;80;21045;-72
2022/09/02 09:48:34;;;;;;;2.33;1.23;;;;;;;21.21;41.35;100716.16;2180347;80;21002;-72
2022/09/02 09:51:35;;;;;;;1.57;0.80;;;;;;;21.28;41.45;100708.27;2192201;80;20972;-73
2022/09/02 09:54:36;;;;;;;1.10;1.00;;;;;;;21.43;41.31;100709.31;2189819;79;21466;-76
2022/09/02 09:57:40;;;;;;;1.55;1.07;;;;;;;21.51;41.27;100700.08;2194034;79;20979;-73
2022/09/02 10:00:41;;;;;;;1.80;1.10;;;;;;;21.02;40.68;100708.02;2182115;80;21450;-72
2022/09/02 10:04:03;;;;;;;3.40;1.00;;;;;;;20.43;41.44;100699.83;2183156;79;21007;-73
2022/09/02 10:07:09;;;;;;;1.47;1.00;;;;;;;20.24;42.12;100694.86;2193271;79;21070;-72
2022/09/02 10:10:23;;;;;;;2.58;1.15;;;;;;;20.17;41.79;100698.66;2188764;79;21029;-72
2022/09/02 10:13:32;;;;;;;1.20;1.10;;;;;;;20.29;42.01;100691.00;2192225;79;21011;-74
2022/09/02 10:17:02;;;;;;;1.20;0.93;;;;;;;20.62;42.54;100683.78;2192198;79;21007;-72
2022/09/02 10:20:30;;;;;;;1.65;1.17;;;;;;;21.09;42.62;100673.39;2193532;79;21596;-73
2022/09/02 10:24:06;;;;;;;1.20;0.85;;;;;;;21.71;42.34;100678.27;2193623;79;20991;-73
2022/09/02 10:27:16;;;;;;;3.00;1.00;;;;;;;21.67;40.97;100677.87;2133720;80;20967;-71
2022/09/02 10:30:24;;;;;;;1.15;1.00;;;;;;;21.07;41.37;100675.52;2165532;80;20993;-72
2022/09/02 10:34:01;;;;;;;2.00;1.37;;;;;;;20.73;41.94;100680.38;2187279;79;21496;-73
2022/09/02 10:37:22;;;;;;;1.60;1.05;;;;;;;20.77;42.09;100681.57;2187590;79;21038;-76
2022/09/02 10:40:28;;;;;;;3.92;1.30;;;;;;;21.26;42.22;100673.96;2195369;79;21097;-72
2022/09/02 10:43:44;;;;;;;1.37;1.17;;;;;;;21.17;42.03;100682.55;2186435;79;21505;-74
2022/09/02 10:47:24;;;;;;;1.15;1.05;;;;;;;20.78;41.51;100682.72;2188364;80;20990;-72
2022/09/02 10:50:52;;;;;;;3.08;1.65;;;;;;;20.26;41.26;100682.01;2192434;79;21021;-71
2022/09/02 10:54:31;;;;;;;2.75;1.40;;;;;;;19.83;42.08;100671.06;2193672;79;20993;-72
2022/09/02 10:57:37;;;;;;;1.82;1.30;;;;;;;19.57;42.31;100680.87;2199109;79;20982;-71
2022/09/02 11:00:41;;;;;;;1.55;1.10;;;;;;;19.37;42.94;100670.17;2188400;79;21025;-73
2022/09/02 11:04:02;;;;;;;2.25;1.20;;;;;;;19.38;42.77;100662.39;2203790;79;20997;-74
2022/09/02 11:07:07;;;;;;;1.35;1.20;;;;;;;19.67;43.15;100655.69;2177158;79;21022;-72
2022/09/02 11:10:20;;;;;;;3.55;1.25;;;;;;;19.99;43.03;100657.61;2190940;79;21010;-73
2022/09/02 11:13:38;;;;;;;2.42;1.20;;;;;;;19.97;42.99;100669.96;2190160;79;21041;-72
2022/09/02 11:16:45;;;;;;;2.35;1.50;;;;;;;19.75;42.31;100669.44;2192353;79;21022;-72
2022/09/02 11:20:00;;;;;;;4.67;1.50;;;;;;;19.73;42.71;100659.91;2193841;79;21040;-71
2022/09/02 11:23:35;;;;;;;1.77;1.20;;;;;;;19.84;42.13;100661.94;2190195;79;21563;-71
2022/09/02 11:26:47;;;;;;;1.20;1.10;;;;;;;19.80;42.71;100662.08;2191075;79;21006;-74
2022/09/02 11:30:16;;;;;;;3.98;1.15;;;;;;;19.80;42.94;100654.00;2194734;79;21533;-73
2022/09/02 11:33:52;;;;;;;1.20;1.10;;;;;;;19.83;42.26;100653.56;2163004;79;20991;-71
2022/09/02 11:36:55;;;;;;;3.22;1.00;;;;;;;19.78;41.88;100645.30;2190212;79;21002;-71
2022/09/02 11:40:02;;;;;;;1.42;1.00;;;;;;;19.83;42.92;100644.14;2194701;79;21058;-71
2022/09/02 11:43:21;;;;;;;3.83;1.30;;;;;;;19.83;42.76;100645.48;2192269;79;21006;-72
2022/09/02 11:46:42;;;;;;;1.20;1.10;;;;;;;20.10;43.73;100644.30;2193422;79;20990;-72
2022/09/02 11:49:54;;;;;;;1.35;1.20;;;;;;;20.52;42.74;100643.27;2191849;80;21021;-73
2022/09/02 11:53:31;;;;;;;3.80;1.10;;;;;;;20.74;42.40;100634.83;2165382;80;20982;-72
2022/09/02 11:56:42;;;;;;;1.52;1.20;;;;;;;20.55;41.93;100640.19;2187730;80;21002;-72
2022/09/02 11:59:55;;;;;;;3.77;1.45;;;;;;;20.36;42.95;100640.59;2190779;79;21447;-72
2022/09/02 12:03:07;;;;;;;2.83;1.10;;;;;;;20.23;42.27;100637.17;2164922;80;21003;-71
2022/09/02 12:06:17;;;;;;;1.67;1.22;;;;;;;20.03;42.16;100631.38;2193659;79;20975;-73
2022/09/02 12:09:20;;;;;;;1.10;0.90;;;;;;;19.87;41.94;100631.88;2191203;79;21035;-72
2022/09/02 12:12:44;;;;;;;3.00;1.77;;;;;;;19.79;43.10;100631.61;2182177;79;21513;-72
2022/09/02 12:15:45;;;;;;;2.35;1.17;;;;;;;19.78;42.68;100630.49;2189457;79;20998;-72
2022/09/02 12:18:58;;;;;;;7.08;1.05;;;;;;;19.79;42.91;100633.48;2189226;79;20936;-72
2022/09/02 12:22:24;;;;;;;1.00;1.00;;;;;;;19.79;43.04;100626.75;2187184;79;21011;-71
2022/09/02 12:25:36;;;;;;;3.75;1.00;;;;;;;19.99;42.65;100614.02;2190792;80;21621;-73
2022/09/02 12:28:36;;;;;;;2.35;1.00;;;;;;;20.51;42.74;100621.94;2192880;79;21006;-72
2022/09/02 12:31:44;;;;;;;2.65;0.90;;;;;;;20.90;41.22;100609.99;2190750;79;20978;-71
2022/09/02 12:34:51;;;;;;;1.95;1.20;;;;;;;21.16;41.50;100604.02;2197392;79;21002;-71
2022/09/02 12:37:55;;;;;;;1.15;1.05;;;;;;;21.19;40.96;100605.73;2186283;80;20926;-71
2022/09/02 12:41:19;;;;;;;3.87;1.07;;;;;;;21.02;40.28;100608.20;2190301;79;21100;-71
2022/09/02 12:44:45;;;;;;;1.10;1.00;;;;;;;20.58;40.99;100610.59;2186796;80;21005;-71
2022/09/02 12:48:03;;;;;;;1.95;1.00;;;;;;;20.17;39.95;100608.41;2148592;80;21018;-72
2022/09/02 12:51:05;;;;;;;1.22;1.00;;;;;;;19.85;39.92;100608.38;2192768;79;21053;-73
2022/09/02 12:54:06;;;;;;;3.20;0.93;;;;;;;20.09;40.66;100597.37;2191327;79;21008;-71
2022/09/02 12:57:10;;;;;;;2.35;1.00;;;;;;;20.59;40.90;100586.64;2191850;79;20983;-71
2022/09/02 13:00:35;;;;;;;1.02;0.80;;;;;;;21.08;40.79;100589.47;2191958;80;21035;-72
2022/09/02 13:04:01;;;;;;;1.25;1.15;;;;;;;20.98;40.13;100591.36;2191172;79;20908;-72
2022/09/02 13:07:24;;;;;;;4.42;1.00;;;;;;;20.60;39.33;100587.75;2196878;79;21698;-71
2022/09/02 13:10:57;;;;;;;1.22;1.00;;;;;;;20.15;40.48;100591.92;2187381;79;21062;-72
2022/09/02 13:14:38;;;;;;;1.22;1.05;;;;;;;19.97;41.33;100591.03;2171618;79;20966;-74
2022/09/02 13:18:03;;;;;;;5.25;0.90;;;;;;;19.78;41.10;100577.98;2195365;79;21018;-72
2022/09/02 13:21:43;;;;;;;2.35;1.00;;;;;;;19.57;41.68;100587.16;2188936;79;20990;-71
2022/09/02 13:25:27;;;;;;;2.33;1.17;;;;;;;19.44;42.00;100580.81;2192543;79;21512;-73
2022/09/02 13:29:09;;;;;;;1.10;1.00;;;;;;;19.43;42.59;100575.66;2190723;79;21007;-71
2022/09/02 13:32:15;;;;;;;1.17;0.90;;;;;;;19.43;42.39;100575.66;2191991;79;21061;-72
2022/09/02 13:35:22;;;;;;;2.47;1.07;;;;;;;19.49;41.94;100576.14;2167594;80;21025;-72
2022/09/02 13:38:27;;;;;;;10.23;1.20;;;;;;;19.62;42.96;100571.20;2190236;79;21045;-72
2022/09/02 13:41:31;;;;;;;1.07;0.95;;;;;;;19.75;42.80;100569.00;2188743;79;20929;-75
2022/09/02 13:44:32;;;;;;;0.82;0.82;;;;;;;19.79;43.01;100569.68;2179387;79;20978;-71
2022/09/02 13:47:34;;;;;;;1.27;1.00;;;;;;;19.84;42.99;100565.00;2187496;79;21031;-74
2022/09/02 13:50:38;;;;;;;1.70;0.90;;;;;;;19.83;43.05;100562.84;2181139;80;21533;-71
2022/09/02 13:53:44;;;;;;;1.82;1.50;;;;;;;19.82;43.00;100561.70;2185526;80;21551;-71
2022/09/02 13:56:45;;;;;;;3.83;1.12;;;;;;;19.89;42.95;100557.92;2190484;79;20998;-72
2022/09/02 13:59:51;;;;;;;1.52;1.07;;;;;;;19.86;43.09;100552.16;2191254;79;21086;-71
2022/09/02 14:03:10;;;;;;;4.00;2.27;;;;;;;19.88;43.12;100548.73;2195164;79;20996;-71
2022/09/02 14:06:11;;;;;;;3.42;2.42;;;;;;;19.77;42.39;100553.47;2188883;79;21049;-74
2022/09/02 14:09:26;;;;;;;5.60;2.47;;;;;;;19.60;42.37;100547.20;2196024;79;20974;-73
2022/09/02 14:12:29;;;;;;;7.37;3.62;;;;;;;19.43;42.06;100550.92;2190668;79;20982;-74
2022/09/02 14:15:32;;;;;;;8.55;3.85;;;;;;;19.31;42.09;100545.06;2167220;80;21045;-73
2022/09/02 14:18:33;;;;;;;3.20;1.70;;;;;;;19.19;42.68;100548.42;2166584;80;20962;-74
2022/09/02 14:21:37;;;;;;;3.75;1.70;;;;;;;19.23;42.61;100547.47;2188929;80;21997;-73
2022/09/02 14:24:40;;;;;;;2.33;1.60;;;;;;;19.30;42.65;100546.94;2164574;79;20986;-74
2022/09/02 14:27:50;;;;;;;2.67;1.98;;;;;;;19.36;42.97;100548.77;2192357;79;21455;-75
2022/09/02 14:31:04;;;;;;;4.12;1.55;;;;;;;19.47;42.54;100551.30;2189261;80;20991;-74